Whiting Fld NAS, FL

12:30 PM CST on January 29, 2015 (GMT -0600)
Whiting Field Naval Air Station (South) | Change Station
CLOSE
Current Station
Airport
Location: Milton,
Elevation: 177 ft
Nearby Weather Stations

Elev 177 ft 30.70 °N, 87.02 °W | Updated 34 minutes ago

Partly Cloudy
Partly Cloudy
68 °F
Feels Like 68 °F
N
15
Wind Variable Wind from South

Today
High -- | Low -- °F
--% Chance of Precip.
Yesterday
High -- | Low -- °F
Precip. -- in
6:41 AM 5:21 PM
Waxing Gibbous, 76% visible
Pressure 30.24 in
Visibility 10.0 miles
Clouds Few 3000 ft
Scattered Clouds 25000 ft
Dew Point 51 °F
Humidity 55%
Rainfall 0.00 in
Snow Depth Not available.
UV 5 out of 12
Pollen 6.20 out of 12
Air Quality Not available.
Flu Activity Not available.
METAR KNDZ 291756Z 17013KT 10SM FEW030 SCT250 20/11 A3028 RMK AO2 SLP239 FU DSNT N-E T02000106 10200 20056 58008

More Conditions Fewer Conditions

Pressure 30.24 in
Visibility 10.0 miles
Clouds Few 3000 ft
Scattered Clouds 25000 ft
Dew Point 51 °F
Humidity 55%
Rainfall 0.00 in
Snow Depth Not available.
UV 5 out of 12
Pollen 6.20 out of 12
Air Quality Not available.
Flu Activity Not available.
METAR KNDZ 291756Z 17013KT 10SM FEW030 SCT250 20/11 A3028 RMK AO2 SLP239 FU DSNT N-E T02000106 10200 20056 58008

More Conditions Fewer Conditions

10-Day Weather Forecast

Almanac

Astronomy

Jan. 29, 2015 Rise Set
Actual Time
Civil Twilight
Nautical Twilight
Astronomical Twilight
Moon
Length of Visible Light
Length of Day
Tomorrow will be .
, % of the Moon is Illuminated

Today's Extremes

State Highs State Lows

Community

WunderPhotos

Upload Photos

1,791,530 photos uploaded!

WunderBlogs® & News

Nearby

Air Quality

  Air Quality AQ Index Pollutant
Not available.

Snow Depth

Station Depth Elevation

Earthquake Activity

City Distance Mag. Time & Date
Minimum magnitude displayed is 2.5.

Coastal Water Temperatures

Place Temperature

Nearby Weather Stations